sensor_id;sensor_type;location;lat;lon;timestamp;P1;durP1;ratioP1;P2;durP2;ratioP2
34152;SDS011;20426;48.372;10.888;2022-12-10T00:00:28;35.95;;;16.10;;
34152;SDS011;20426;48.372;10.888;2022-12-10T00:01:18;28.27;;;14.60;;
34152;SDS011;20426;48.372;10.888;2022-12-10T00:01:50;28.77;;;14.50;;
34152;SDS011;20426;48.372;10.888;2022-12-10T00:02:21;37.65;;;14.98;;
34152;SDS011;20426;48.372;10.888;2022-12-10T00:02:52;32.67;;;14.55;;
34152;SDS011;20426;48.372;10.888;2022-12-10T00:03:24;31.67;;;14.95;;
34152;SDS011;20426;48.372;10.888;2022-12-10T00:03:55;32.08;;;15.63;;
34152;SDS011;20426;48.372;10.888;2022-12-10T00:04:25;33.50;;;15.52;;
34152;SDS011;20426;48.372;10.888;2022-12-10T00:04:56;34.55;;;14.50;;
34152;SDS011;20426;48.372;10.888;2022-12-10T00:05:27;32.67;;;15.23;;
34152;SDS011;20426;48.372;10.888;2022-12-10T00:06:01;30.63;;;15.05;;
34152;SDS011;20426;48.372;10.888;2022-12-10T00:06:34;34.42;;;14.85;;
34152;SDS011;20426;48.372;10.888;2022-12-10T00:07:06;29.73;;;14.73;;
34152;SDS011;20426;48.372;10.888;2022-12-10T00:07:36;33.17;;;15.27;;
34152;SDS011;20426;48.372;10.888;2022-12-10T00:08:07;32.28;;;14.95;;
34152;SDS011;20426;48.372;10.888;2022-12-10T00:08:38;30.60;;;14.80;;
34152;SDS011;20426;48.372;10.888;2022-12-10T00:09:10;34.08;;;16.48;;
34152;SDS011;20426;48.372;10.888;2022-12-10T00:09:43;30.48;;;13.35;;
34152;SDS011;20426;48.372;10.888;2022-12-10T00:10:14;29.48;;;15.23;;
34152;SDS011;20426;48.372;10.888;2022-12-10T00:10:44;35.55;;;16.48;;
34152;SDS011;20426;48.372;10.888;2022-12-10T00:11:16;38.25;;;17.15;;
34152;SDS011;20426;48.372;10.888;2022-12-10T00:11:47;28.98;;;14.65;;
34152;SDS011;20426;48.372;10.888;2022-12-10T00:12:19;33.47;;;15.77;;
34152;SDS011;20426;48.372;10.888;2022-12-10T00:12:49;31.75;;;15.35;;
34152;SDS011;20426;48.372;10.888;2022-12-10T00:13:20;32.65;;;14.82;;
34152;SDS011;20426;48.372;10.888;2022-12-10T00:13:51;35.88;;;15.23;;
34152;SDS011;20426;48.372;10.888;2022-12-10T00:14:22;33.35;;;15.75;;
34152;SDS011;20426;48.372;10.888;2022-12-10T00:14:53;32.22;;;15.30;;
34152;SDS011;20426;48.372;10.888;2022-12-10T00:15:23;32.28;;;15.55;;
34152;SDS011;20426;48.372;10.888;2022-12-10T00:15:54;33.15;;;15.80;;
34152;SDS011;20426;48.372;10.888;2022-12-10T00:16:26;39.50;;;15.65;;
34152;SDS011;20426;48.372;10.888;2022-12-10T00:16:58;30.48;;;14.65;;
34152;SDS011;20426;48.372;10.888;2022-12-10T00:17:28;29.35;;;15.23;;
34152;SDS011;20426;48.372;10.888;2022-12-10T00:17:59;37.90;;;15.80;;
34152;SDS011;20426;48.372;10.888;2022-12-10T00:18:30;33.63;;;15.50;;
34152;SDS011;20426;48.372;10.888;2022-12-10T00:19:00;37.90;;;15.75;;
34152;SDS011;20426;48.372;10.888;2022-12-10T00:19:31;39.05;;;15.55;;
34152;SDS011;20426;48.372;10.888;2022-12-10T00:20:02;32.20;;;15.38;;
34152;SDS011;20426;48.372;10.888;2022-12-10T00:20:35;35.75;;;16.48;;
34152;SDS011;20426;48.372;10.888;2022-12-10T00:21:08;35.83;;;16.33;;
34152;SDS011;20426;48.372;10.888;2022-12-10T00:21:41;33.03;;;15.35;;
34152;SDS011;20426;48.372;10.888;2022-12-10T00:22:13;36.15;;;15.93;;
34152;SDS011;20426;48.372;10.888;2022-12-10T00:22:44;38.13;;;16.45;;
34152;SDS011;20426;48.372;10.888;2022-12-10T00:23:15;33.75;;;15.65;;
34152;SDS011;20426;48.372;10.888;2022-12-10T00:23:46;32.58;;;15.82;;
34152;SDS011;20426;48.372;10.888;2022-12-10T00:24:17;29.95;;;15.65;;
34152;SDS011;20426;48.372;10.888;2022-12-10T00:24:47;32.05;;;15.63;;
34152;SDS011;20426;48.372;10.888;2022-12-10T00:25:18;35.72;;;15.45;;
34152;SDS011;20426;48.372;10.888;2022-12-10T00:25:49;36.03;;;15.85;;
34152;SDS011;20426;48.372;10.888;2022-12-10T00:26:24;32.65;;;16.02;;
34152;SDS011;20426;48.372;10.888;2022-12-10T00:26:56;34.00;;;15.35;;
34152;SDS011;20426;48.372;10.888;2022-12-10T00:27:27;34.53;;;15.70;;
34152;SDS011;20426;48.372;10.888;2022-12-10T00:27:58;36.50;;;17.50;;
34152;SDS011;20426;48.372;10.888;2022-12-10T00:28:28;35.60;;;16.35;;
34152;SDS011;20426;48.372;10.888;2022-12-10T00:28:59;40.42;;;17.52;;
34152;SDS011;20426;48.372;10.888;2022-12-10T00:29:31;33.60;;;15.68;;
34152;SDS011;20426;48.372;10.888;2022-12-10T00:30:02;33.25;;;14.82;;
34152;SDS011;20426;48.372;10.888;2022-12-10T00:30:33;38.50;;;17.42;;
34152;SDS011;20426;48.372;10.888;2022-12-10T00:31:05;40.30;;;16.00;;
34152;SDS011;20426;48.372;10.888;2022-12-10T00:31:38;36.55;;;16.60;;
34152;SDS011;20426;48.372;10.888;2022-12-10T00:32:09;38.40;;;16.27;;
34152;SDS011;20426;48.372;10.888;2022-12-10T00:32:40;35.42;;;16.88;;
34152;SDS011;20426;48.372;10.888;2022-12-10T00:33:11;31.48;;;16.17;;
34152;SDS011;20426;48.372;10.888;2022-12-10T00:33:42;39.65;;;16.63;;
34152;SDS011;20426;48.372;10.888;2022-12-10T00:34:13;36.90;;;17.00;;
34152;SDS011;20426;48.372;10.888;2022-12-10T00:34:44;33.72;;;17.17;;
34152;SDS011;20426;48.372;10.888;2022-12-10T00:35:15;35.05;;;16.23;;
34152;SDS011;20426;48.372;10.888;2022-12-10T00:35:45;35.28;;;16.65;;
34152;SDS011;20426;48.372;10.888;2022-12-10T00:36:17;34.63;;;16.40;;
34152;SDS011;20426;48.372;10.888;2022-12-10T00:36:51;40.58;;;19.52;;
34152;SDS011;20426;48.372;10.888;2022-12-10T00:37:21;40.90;;;19.00;;
34152;SDS011;20426;48.372;10.888;2022-12-10T00:37:52;43.78;;;20.15;;
34152;SDS011;20426;48.372;10.888;2022-12-10T00:38:23;45.75;;;20.70;;
34152;SDS011;20426;48.372;10.888;2022-12-10T00:38:54;44.53;;;21.45;;
34152;SDS011;20426;48.372;10.888;2022-12-10T00:39:25;45.22;;;20.95;;
34152;SDS011;20426;48.372;10.888;2022-12-10T00:39:55;46.85;;;22.67;;
34152;SDS011;20426;48.372;10.888;2022-12-10T00:40:26;48.28;;;22.88;;
34152;SDS011;20426;48.372;10.888;2022-12-10T00:40:57;46.67;;;22.33;;
34152;SDS011;20426;48.372;10.888;2022-12-10T00:41:28;40.78;;;18.98;;
34152;SDS011;20426;48.372;10.888;2022-12-10T00:41:59;46.92;;;19.65;;
34152;SDS011;20426;48.372;10.888;2022-12-10T00:42:29;42.22;;;18.25;;
34152;SDS011;20426;48.372;10.888;2022-12-10T00:43:00;44.10;;;17.45;;
34152;SDS011;20426;48.372;10.888;2022-12-10T00:43:31;40.67;;;18.98;;
34152;SDS011;20426;48.372;10.888;2022-12-10T00:44:02;38.55;;;17.48;;
34152;SDS011;20426;48.372;10.888;2022-12-10T00:44:33;41.88;;;17.92;;
34152;SDS011;20426;48.372;10.888;2022-12-10T00:45:04;38.13;;;17.63;;
34152;SDS011;20426;48.372;10.888;2022-12-10T00:45:35;38.80;;;17.73;;
34152;SDS011;20426;48.372;10.888;2022-12-10T00:46:06;35.35;;;17.25;;
34152;SDS011;20426;48.372;10.888;2022-12-10T00:46:37;40.42;;;16.60;;
34152;SDS011;20426;48.372;10.888;2022-12-10T00:47:08;38.15;;;17.15;;
34152;SDS011;20426;48.372;10.888;2022-12-10T00:47:39;34.05;;;17.10;;
34152;SDS011;20426;48.372;10.888;2022-12-10T00:48:09;35.38;;;16.45;;
34152;SDS011;20426;48.372;10.888;2022-12-10T00:48:40;35.28;;;17.00;;
34152;SDS011;20426;48.372;10.888;2022-12-10T00:49:12;34.53;;;16.45;;
34152;SDS011;20426;48.372;10.888;2022-12-10T00:49:42;39.22;;;17.20;;
34152;SDS011;20426;48.372;10.888;2022-12-10T00:50:13;38.50;;;17.23;;
34152;SDS011;20426;48.372;10.888;2022-12-10T00:50:44;40.55;;;16.63;;
34152;SDS011;20426;48.372;10.888;2022-12-10T00:51:24;35.47;;;17.27;;
34152;SDS011;20426;48.372;10.888;2022-12-10T00:51:56;35.92;;;17.02;;
34152;SDS011;20426;48.372;10.888;2022-12-10T00:52:26;36.92;;;17.33;;
34152;SDS011;20426;48.372;10.888;2022-12-10T00:52:57;37.38;;;18.00;;
34152;SDS011;20426;48.372;10.888;2022-12-10T00:53:28;37.28;;;16.77;;
34152;SDS011;20426;48.372;10.888;2022-12-10T00:54:00;35.83;;;17.10;;
34152;SDS011;20426;48.372;10.888;2022-12-10T00:54:31;36.95;;;16.75;;
34152;SDS011;20426;48.372;10.888;2022-12-10T00:55:02;33.65;;;16.08;;
34152;SDS011;20426;48.372;10.888;2022-12-10T00:55:33;39.90;;;17.02;;
34152;SDS011;20426;48.372;10.888;2022-12-10T00:56:04;39.75;;;17.33;;
34152;SDS011;20426;48.372;10.888;2022-12-10T00:56:35;36.08;;;17.95;;
34152;SDS011;20426;48.372;10.888;2022-12-10T00:57:06;38.42;;;17.00;;
34152;SDS011;20426;48.372;10.888;2022-12-10T00:57:37;36.22;;;17.23;;
34152;SDS011;20426;48.372;10.888;2022-12-10T00:58:07;31.00;;;15.57;;
34152;SDS011;20426;48.372;10.888;2022-12-10T00:58:38;38.25;;;17.10;;
34152;SDS011;20426;48.372;10.888;2022-12-10T00:59:09;38.08;;;17.17;;
34152;SDS011;20426;48.372;10.888;2022-12-10T00:59:40;36.20;;;17.02;;
34152;SDS011;20426;48.372;10.888;2022-12-10T01:00:11;37.42;;;16.80;;
34152;SDS011;20426;48.372;10.888;2022-12-10T01:00:43;37.70;;;17.25;;
34152;SDS011;20426;48.372;10.888;2022-12-10T01:02:07;35.40;;;16.33;;
34152;SDS011;20426;48.372;10.888;2022-12-10T01:02:37;36.78;;;16.13;;
34152;SDS011;20426;48.372;10.888;2022-12-10T01:03:08;34.78;;;16.50;;
34152;SDS011;20426;48.372;10.888;2022-12-10T01:03:39;43.08;;;17.95;;
34152;SDS011;20426;48.372;10.888;2022-12-10T01:04:15;36.45;;;16.88;;
34152;SDS011;20426;48.372;10.888;2022-12-10T01:04:47;35.05;;;16.35;;
34152;SDS011;20426;48.372;10.888;2022-12-10T01:05:22;42.35;;;17.40;;
34152;SDS011;20426;48.372;10.888;2022-12-10T01:05:54;39.13;;;18.02;;
34152;SDS011;20426;48.372;10.888;2022-12-10T01:06:29;36.13;;;16.52;;
34152;SDS011;20426;48.372;10.888;2022-12-10T01:07:02;37.42;;;16.77;;
34152;SDS011;20426;48.372;10.888;2022-12-10T01:07:33;37.95;;;17.65;;
34152;SDS011;20426;48.372;10.888;2022-12-10T01:08:03;40.20;;;17.95;;
34152;SDS011;20426;48.372;10.888;2022-12-10T01:08:34;36.58;;;16.90;;
34152;SDS011;20426;48.372;10.888;2022-12-10T01:09:06;37.75;;;16.40;;
34152;SDS011;20426;48.372;10.888;2022-12-10T01:09:39;36.85;;;17.50;;
34152;SDS011;20426;48.372;10.888;2022-12-10T01:10:09;36.03;;;17.10;;
34152;SDS011;20426;48.372;10.888;2022-12-10T01:10:40;35.28;;;16.83;;
34152;SDS011;20426;48.372;10.888;2022-12-10T01:11:12;39.13;;;18.42;;
34152;SDS011;20426;48.372;10.888;2022-12-10T01:11:45;34.80;;;16.23;;
34152;SDS011;20426;48.372;10.888;2022-12-10T01:12:17;33.72;;;17.88;;
34152;SDS011;20426;48.372;10.888;2022-12-10T01:12:47;36.13;;;17.13;;
34152;SDS011;20426;48.372;10.888;2022-12-10T01:13:18;36.28;;;16.23;;
34152;SDS011;20426;48.372;10.888;2022-12-10T01:13:49;36.13;;;18.02;;
34152;SDS011;20426;48.372;10.888;2022-12-10T01:14:22;31.17;;;16.60;;
34152;SDS011;20426;48.372;10.888;2022-12-10T01:14:57;33.95;;;17.38;;
34152;SDS011;20426;48.372;10.888;2022-12-10T01:15:28;37.33;;;17.17;;
34152;SDS011;20426;48.372;10.888;2022-12-10T01:16:02;36.33;;;17.45;;
34152;SDS011;20426;48.372;10.888;2022-12-10T01:16:35;34.85;;;16.17;;
34152;SDS011;20426;48.372;10.888;2022-12-10T01:17:06;37.70;;;17.42;;
34152;SDS011;20426;48.372;10.888;2022-12-10T01:17:37;32.90;;;15.98;;
34152;SDS011;20426;48.372;10.888;2022-12-10T01:18:08;32.78;;;16.67;;
34152;SDS011;20426;48.372;10.888;2022-12-10T01:18:39;38.63;;;18.75;;
34152;SDS011;20426;48.372;10.888;2022-12-10T01:19:11;32.63;;;16.13;;
34152;SDS011;20426;48.372;10.888;2022-12-10T01:19:42;34.65;;;16.50;;
34152;SDS011;20426;48.372;10.888;2022-12-10T01:20:13;36.67;;;16.73;;
34152;SDS011;20426;48.372;10.888;2022-12-10T01:20:44;34.13;;;17.60;;
34152;SDS011;20426;48.372;10.888;2022-12-10T01:21:16;28.25;;;14.43;;
34152;SDS011;20426;48.372;10.888;2022-12-10T01:21:51;37.42;;;16.35;;
34152;SDS011;20426;48.372;10.888;2022-12-10T01:22:23;33.33;;;17.00;;
34152;SDS011;20426;48.372;10.888;2022-12-10T01:22:54;35.72;;;17.13;;
34152;SDS011;20426;48.372;10.888;2022-12-10T01:23:24;33.58;;;16.45;;
34152;SDS011;20426;48.372;10.888;2022-12-10T01:23:56;31.75;;;17.40;;
34152;SDS011;20426;48.372;10.888;2022-12-10T01:24:27;30.08;;;15.52;;
34152;SDS011;20426;48.372;10.888;2022-12-10T01:24:59;33.47;;;16.38;;
34152;SDS011;20426;48.372;10.888;2022-12-10T01:25:29;36.42;;;17.65;;
34152;SDS011;20426;48.372;10.888;2022-12-10T01:26:04;27.08;;;15.52;;
34152;SDS011;20426;48.372;10.888;2022-12-10T01:26:36;31.42;;;15.65;;
34152;SDS011;20426;48.372;10.888;2022-12-10T01:27:08;32.90;;;16.95;;
34152;SDS011;20426;48.372;10.888;2022-12-10T01:27:38;30.88;;;15.93;;
34152;SDS011;20426;48.372;10.888;2022-12-10T01:28:09;32.80;;;17.15;;
34152;SDS011;20426;48.372;10.888;2022-12-10T01:28:40;31.70;;;16.60;;
34152;SDS011;20426;48.372;10.888;2022-12-10T01:29:12;32.97;;;17.27;;
34152;SDS011;20426;48.372;10.888;2022-12-10T01:29:43;31.35;;;15.95;;
34152;SDS011;20426;48.372;10.888;2022-12-10T01:30:13;33.50;;;16.45;;
34152;SDS011;20426;48.372;10.888;2022-12-10T01:30:44;33.75;;;17.23;;
34152;SDS011;20426;48.372;10.888;2022-12-10T01:31:50;35.13;;;16.80;;
34152;SDS011;20426;48.372;10.888;2022-12-10T01:32:22;27.45;;;16.08;;
34152;SDS011;20426;48.372;10.888;2022-12-10T01:32:53;28.80;;;15.73;;
34152;SDS011;20426;48.372;10.888;2022-12-10T01:33:23;34.20;;;16.88;;
34152;SDS011;20426;48.372;10.888;2022-12-10T01:33:54;36.70;;;16.63;;
34152;SDS011;20426;48.372;10.888;2022-12-10T01:34:26;34.03;;;16.83;;
34152;SDS011;20426;48.372;10.888;2022-12-10T01:34:58;32.70;;;17.23;;
34152;SDS011;20426;48.372;10.888;2022-12-10T01:35:28;31.80;;;17.08;;
34152;SDS011;20426;48.372;10.888;2022-12-10T01:36:03;33.22;;;16.98;;
34152;SDS011;20426;48.372;10.888;2022-12-10T01:36:36;30.20;;;15.45;;
34152;SDS011;20426;48.372;10.888;2022-12-10T01:37:09;34.15;;;16.00;;
34152;SDS011;20426;48.372;10.888;2022-12-10T01:37:40;30.17;;;16.52;;
34152;SDS011;20426;48.372;10.888;2022-12-10T01:38:11;28.13;;;15.23;;
34152;SDS011;20426;48.372;10.888;2022-12-10T01:38:42;29.67;;;16.58;;
34152;SDS011;20426;48.372;10.888;2022-12-10T01:39:14;25.52;;;15.43;;
34152;SDS011;20426;48.372;10.888;2022-12-10T01:39:46;31.23;;;15.57;;
34152;SDS011;20426;48.372;10.888;2022-12-10T01:40:17;31.20;;;16.00;;
34152;SDS011;20426;48.372;10.888;2022-12-10T01:40:48;28.23;;;14.82;;
34152;SDS011;20426;48.372;10.888;2022-12-10T01:41:21;29.83;;;16.45;;
34152;SDS011;20426;48.372;10.888;2022-12-10T01:41:57;34.25;;;17.35;;
34152;SDS011;20426;48.372;10.888;2022-12-10T01:42:29;29.40;;;17.27;;
34152;SDS011;20426;48.372;10.888;2022-12-10T01:43:00;27.23;;;15.32;;
34152;SDS011;20426;48.372;10.888;2022-12-10T01:43:48;25.75;;;14.63;;
34152;SDS011;20426;48.372;10.888;2022-12-10T01:44:58;27.52;;;16.48;;
34152;SDS011;20426;48.372;10.888;2022-12-10T01:45:31;25.48;;;14.35;;
34152;SDS011;20426;48.372;10.888;2022-12-10T01:46:02;30.10;;;15.43;;
34152;SDS011;20426;48.372;10.888;2022-12-10T01:46:34;33.22;;;15.77;;
34152;SDS011;20426;48.372;10.888;2022-12-10T01:47:09;31.00;;;16.70;;
34152;SDS011;20426;48.372;10.888;2022-12-10T01:47:40;33.78;;;15.73;;
34152;SDS011;20426;48.372;10.888;2022-12-10T01:48:10;25.08;;;14.90;;
34152;SDS011;20426;48.372;10.888;2022-12-10T01:48:41;32.60;;;16.58;;
34152;SDS011;20426;48.372;10.888;2022-12-10T01:49:16;34.28;;;17.02;;
34152;SDS011;20426;48.372;10.888;2022-12-10T01:49:49;29.92;;;15.35;;
34152;SDS011;20426;48.372;10.888;2022-12-10T01:50:19;31.48;;;15.80;;
34152;SDS011;20426;48.372;10.888;2022-12-10T01:50:50;28.88;;;15.85;;
34152;SDS011;20426;48.372;10.888;2022-12-10T01:51:21;29.98;;;15.18;;
34152;SDS011;20426;48.372;10.888;2022-12-10T01:51:54;27.48;;;15.70;;
34152;SDS011;20426;48.372;10.888;2022-12-10T01:52:25;30.20;;;15.75;;
34152;SDS011;20426;48.372;10.888;2022-12-10T01:52:57;23.63;;;14.07;;
34152;SDS011;20426;48.372;10.888;2022-12-10T01:53:27;29.35;;;15.63;;
34152;SDS011;20426;48.372;10.888;2022-12-10T01:53:58;25.17;;;14.32;;
34152;SDS011;20426;48.372;10.888;2022-12-10T01:54:31;26.48;;;15.38;;
34152;SDS011;20426;48.372;10.888;2022-12-10T01:55:08;28.98;;;15.52;;
34152;SDS011;20426;48.372;10.888;2022-12-10T01:55:59;23.98;;;13.38;;
34152;SDS011;20426;48.372;10.888;2022-12-10T01:56:31;25.40;;;14.70;;
34152;SDS011;20426;48.372;10.888;2022-12-10T01:57:06;26.88;;;15.15;;
34152;SDS011;20426;48.372;10.888;2022-12-10T01:57:39;26.63;;;14.10;;
34152;SDS011;20426;48.372;10.888;2022-12-10T01:58:11;26.25;;;14.57;;
34152;SDS011;20426;48.372;10.888;2022-12-10T01:58:42;26.98;;;14.63;;
34152;SDS011;20426;48.372;10.888;2022-12-10T01:59:14;25.92;;;15.23;;
34152;SDS011;20426;48.372;10.888;2022-12-10T01:59:46;27.48;;;14.90;;
34152;SDS011;20426;48.372;10.888;2022-12-10T02:00:19;27.55;;;14.93;;
34152;SDS011;20426;48.372;10.888;2022-12-10T02:01:52;31.85;;;15.20;;
34152;SDS011;20426;48.372;10.888;2022-12-10T02:03:48;21.40;;;11.27;;
34152;SDS011;20426;48.372;10.888;2022-12-10T02:05:35;22.55;;;13.88;;
34152;SDS011;20426;48.372;10.888;2022-12-10T02:08:33;24.20;;;13.63;;
34152;SDS011;20426;48.372;10.888;2022-12-10T02:11:25;27.95;;;14.80;;
34152;SDS011;20426;48.372;10.888;2022-12-10T02:12:11;23.73;;;13.60;;
34152;SDS011;20426;48.372;10.888;2022-12-10T02:16:02;19.58;;;12.02;;
34152;SDS011;20426;48.372;10.888;2022-12-10T02:16:46;26.95;;;13.57;;
34152;SDS011;20426;48.372;10.888;2022-12-10T02:17:45;25.92;;;14.02;;
34152;SDS011;20426;48.372;10.888;2022-12-10T02:18:26;21.38;;;12.80;;
34152;SDS011;20426;48.372;10.888;2022-12-10T02:19:26;24.90;;;13.85;;
34152;SDS011;20426;48.372;10.888;2022-12-10T02:20:16;27.92;;;14.00;;
34152;SDS011;20426;48.372;10.888;2022-12-10T02:20:51;26.00;;;13.50;;
34152;SDS011;20426;48.372;10.888;2022-12-10T02:21:29;25.60;;;14.27;;
34152;SDS011;20426;48.372;10.888;2022-12-10T02:22:03;31.05;;;15.25;;
34152;SDS011;20426;48.372;10.888;2022-12-10T02:22:38;23.55;;;14.57;;
34152;SDS011;20426;48.372;10.888;2022-12-10T02:23:26;25.30;;;13.73;;
34152;SDS011;20426;48.372;10.888;2022-12-10T02:24:04;31.15;;;15.38;;
34152;SDS011;20426;48.372;10.888;2022-12-10T02:24:38;24.45;;;13.90;;
34152;SDS011;20426;48.372;10.888;2022-12-10T02:25:11;29.98;;;15.10;;
34152;SDS011;20426;48.372;10.888;2022-12-10T02:26:06;24.50;;;14.20;;
34152;SDS011;20426;48.372;10.888;2022-12-10T02:26:44;26.83;;;14.75;;
34152;SDS011;20426;48.372;10.888;2022-12-10T02:27:33;25.98;;;14.05;;
34152;SDS011;20426;48.372;10.888;2022-12-10T02:28:19;27.48;;;14.70;;
34152;SDS011;20426;48.372;10.888;2022-12-10T02:29:13;27.58;;;13.23;;
34152;SDS011;20426;48.372;10.888;2022-12-10T02:29:46;25.05;;;14.07;;
34152;SDS011;20426;48.372;10.888;2022-12-10T02:30:19;25.58;;;14.07;;
34152;SDS011;20426;48.372;10.888;2022-12-10T02:30:50;27.80;;;15.00;;
34152;SDS011;20426;48.372;10.888;2022-12-10T02:31:25;31.70;;;16.30;;
34152;SDS011;20426;48.372;10.888;2022-12-10T02:32:01;28.60;;;15.30;;
34152;SDS011;20426;48.372;10.888;2022-12-10T02:32:36;26.88;;;14.93;;
34152;SDS011;20426;48.372;10.888;2022-12-10T02:33:11;27.17;;;15.45;;
34152;SDS011;20426;48.372;10.888;2022-12-10T02:33:45;26.15;;;15.68;;
34152;SDS011;20426;48.372;10.888;2022-12-10T02:34:20;24.38;;;14.48;;
34152;SDS011;20426;48.372;10.888;2022-12-10T02:34:57;27.17;;;14.68;;
34152;SDS011;20426;48.372;10.888;2022-12-10T02:35:31;27.58;;;15.50;;
34152;SDS011;20426;48.372;10.888;2022-12-10T02:36:05;28.92;;;14.40;;
34152;SDS011;20426;48.372;10.888;2022-12-10T02:36:39;27.90;;;15.38;;
34152;SDS011;20426;48.372;10.888;2022-12-10T02:37:16;24.95;;;14.00;;
34152;SDS011;20426;48.372;10.888;2022-12-10T02:37:53;30.35;;;15.40;;
34152;SDS011;20426;48.372;10.888;2022-12-10T02:38:28;24.67;;;14.55;;
34152;SDS011;20426;48.372;10.888;2022-12-10T02:39:02;27.38;;;14.90;;
34152;SDS011;20426;48.372;10.888;2022-12-10T02:39:37;26.75;;;15.52;;
34152;SDS011;20426;48.372;10.888;2022-12-10T02:40:14;25.63;;;15.30;;
34152;SDS011;20426;48.372;10.888;2022-12-10T02:40:53;28.17;;;14.63;;
34152;SDS011;20426;48.372;10.888;2022-12-10T02:41:34;28.38;;;15.13;;
34152;SDS011;20426;48.372;10.888;2022-12-10T02:42:08;29.20;;;14.73;;
34152;SDS011;20426;48.372;10.888;2022-12-10T02:42:40;25.40;;;14.75;;
34152;SDS011;20426;48.372;10.888;2022-12-10T02:43:14;29.00;;;15.25;;
34152;SDS011;20426;48.372;10.888;2022-12-10T02:43:45;27.77;;;15.30;;
34152;SDS011;20426;48.372;10.888;2022-12-10T02:44:18;27.80;;;14.82;;
34152;SDS011;20426;48.372;10.888;2022-12-10T02:44:50;24.63;;;15.07;;
34152;SDS011;20426;48.372;10.888;2022-12-10T02:45:23;26.00;;;13.80;;
34152;SDS011;20426;48.372;10.888;2022-12-10T02:45:56;30.20;;;14.80;;
34152;SDS011;20426;48.372;10.888;2022-12-10T02:46:28;31.65;;;15.68;;
34152;SDS011;20426;48.372;10.888;2022-12-10T02:47:02;31.33;;;16.23;;
34152;SDS011;20426;48.372;10.888;2022-12-10T02:47:33;26.30;;;14.45;;
34152;SDS011;20426;48.372;10.888;2022-12-10T02:48:05;28.27;;;15.23;;
34152;SDS011;20426;48.372;10.888;2022-12-10T02:48:36;29.95;;;16.25;;
34152;SDS011;20426;48.372;10.888;2022-12-10T02:49:09;27.17;;;15.60;;
34152;SDS011;20426;48.372;10.888;2022-12-10T02:49:43;27.88;;;15.02;;
34152;SDS011;20426;48.372;10.888;2022-12-10T02:50:18;25.75;;;14.73;;
34152;SDS011;20426;48.372;10.888;2022-12-10T02:50:51;27.95;;;14.85;;
34152;SDS011;20426;48.372;10.888;2022-12-10T02:51:21;26.08;;;14.63;;
34152;SDS011;20426;48.372;10.888;2022-12-10T02:51:52;28.75;;;15.32;;
34152;SDS011;20426;48.372;10.888;2022-12-10T02:52:23;25.63;;;15.38;;
34152;SDS011;20426;48.372;10.888;2022-12-10T02:52:55;25.35;;;15.35;;
34152;SDS011;20426;48.372;10.888;2022-12-10T02:53:26;26.83;;;15.57;;
34152;SDS011;20426;48.372;10.888;2022-12-10T02:53:59;26.17;;;14.98;;
34152;SDS011;20426;48.372;10.888;2022-12-10T02:54:36;25.08;;;15.18;;
34152;SDS011;20426;48.372;10.888;2022-12-10T02:55:15;25.55;;;15.20;;
34152;SDS011;20426;48.372;10.888;2022-12-10T02:55:55;26.95;;;14.30;;
34152;SDS011;20426;48.372;10.888;2022-12-10T02:56:43;25.67;;;14.57;;
34152;SDS011;20426;48.372;10.888;2022-12-10T02:58:16;22.98;;;13.00;;
34152;SDS011;20426;48.372;10.888;2022-12-10T03:00:50;24.70;;;13.27;;
34152;SDS011;20426;48.372;10.888;2022-12-10T03:03:37;23.63;;;12.80;;
34152;SDS011;20426;48.372;10.888;2022-12-10T03:04:16;25.48;;;13.88;;
34152;SDS011;20426;48.372;10.888;2022-12-10T03:04:56;26.67;;;13.05;;
34152;SDS011;20426;48.372;10.888;2022-12-10T03:07:14;23.42;;;13.65;;
34152;SDS011;20426;48.372;10.888;2022-12-10T03:07:57;24.35;;;13.90;;
34152;SDS011;20426;48.372;10.888;2022-12-10T03:08:46;25.02;;;12.93;;
34152;SDS011;20426;48.372;10.888;2022-12-10T03:09:31;26.40;;;12.50;;
34152;SDS011;20426;48.372;10.888;2022-12-10T03:11:05;21.50;;;12.18;;
34152;SDS011;20426;48.372;10.888;2022-12-10T03:11:39;23.30;;;12.75;;
34152;SDS011;20426;48.372;10.888;2022-12-10T03:12:16;23.23;;;14.15;;
34152;SDS011;20426;48.372;10.888;2022-12-10T03:12:57;21.52;;;13.05;;
34152;SDS011;20426;48.372;10.888;2022-12-10T03:13:37;28.02;;;14.30;;
34152;SDS011;20426;48.372;10.888;2022-12-10T03:14:14;24.38;;;13.18;;
34152;SDS011;20426;48.372;10.888;2022-12-10T03:14:48;24.63;;;14.18;;
34152;SDS011;20426;48.372;10.888;2022-12-10T03:15:20;26.48;;;14.18;;
34152;SDS011;20426;48.372;10.888;2022-12-10T03:15:54;28.48;;;14.20;;
34152;SDS011;20426;48.372;10.888;2022-12-10T03:16:28;25.70;;;13.88;;
34152;SDS011;20426;48.372;10.888;2022-12-10T03:17:03;25.42;;;13.80;;
34152;SDS011;20426;48.372;10.888;2022-12-10T03:17:36;25.73;;;14.90;;
34152;SDS011;20426;48.372;10.888;2022-12-10T03:18:09;26.25;;;13.77;;
34152;SDS011;20426;48.372;10.888;2022-12-10T03:18:42;27.80;;;14.18;;
34152;SDS011;20426;48.372;10.888;2022-12-10T03:19:16;26.73;;;14.57;;
34152;SDS011;20426;48.372;10.888;2022-12-10T03:19:49;22.17;;;13.95;;
34152;SDS011;20426;48.372;10.888;2022-12-10T03:20:21;24.05;;;13.35;;
34152;SDS011;20426;48.372;10.888;2022-12-10T03:20:53;24.42;;;14.38;;
34152;SDS011;20426;48.372;10.888;2022-12-10T03:21:32;29.00;;;14.73;;
34152;SDS011;20426;48.372;10.888;2022-12-10T03:22:05;29.65;;;15.95;;
34152;SDS011;20426;48.372;10.888;2022-12-10T03:22:38;27.52;;;15.85;;
34152;SDS011;20426;48.372;10.888;2022-12-10T03:23:13;24.95;;;14.85;;
34152;SDS011;20426;48.372;10.888;2022-12-10T03:23:46;23.65;;;14.07;;
34152;SDS011;20426;48.372;10.888;2022-12-10T03:24:19;25.20;;;14.00;;
34152;SDS011;20426;48.372;10.888;2022-12-10T03:24:51;26.20;;;14.55;;
34152;SDS011;20426;48.372;10.888;2022-12-10T03:25:23;27.35;;;14.57;;
34152;SDS011;20426;48.372;10.888;2022-12-10T03:25:56;23.92;;;14.07;;
34152;SDS011;20426;48.372;10.888;2022-12-10T03:26:28;28.35;;;15.52;;
34152;SDS011;20426;48.372;10.888;2022-12-10T03:26:58;21.13;;;14.10;;
34152;SDS011;20426;48.372;10.888;2022-12-10T03:27:30;25.38;;;13.95;;
34152;SDS011;20426;48.372;10.888;2022-12-10T03:28:01;23.27;;;14.15;;
34152;SDS011;20426;48.372;10.888;2022-12-10T03:28:46;25.25;;;14.68;;
34152;SDS011;20426;48.372;10.888;2022-12-10T03:29:22;24.88;;;15.13;;
34152;SDS011;20426;48.372;10.888;2022-12-10T03:29:57;22.67;;;13.93;;
34152;SDS011;20426;48.372;10.888;2022-12-10T03:30:30;27.50;;;14.77;;
34152;SDS011;20426;48.372;10.888;2022-12-10T03:31:03;25.27;;;13.93;;
34152;SDS011;20426;48.372;10.888;2022-12-10T03:31:34;25.38;;;14.18;;
34152;SDS011;20426;48.372;10.888;2022-12-10T03:32:06;28.08;;;14.73;;
34152;SDS011;20426;48.372;10.888;2022-12-10T03:32:36;26.05;;;14.60;;
34152;SDS011;20426;48.372;10.888;2022-12-10T03:33:07;28.67;;;15.90;;
34152;SDS011;20426;48.372;10.888;2022-12-10T03:33:39;29.48;;;15.10;;